<?xml version="1.0" encoding="UTF-8" standalone="no" ?>
<gpx xmlns="http://www.topografix.com/GPX/1/1" xmlns:xsi="http://www.w3.org/2001/XMLSchema-instance" xsi:schemaLocation="http://www.topografix.com/GPX/1/1 http://www.topografix.com/GPX/1/1/gpx.xsd" version="1.1" creator="VisuGPX - https://www.visugpx.com">
  <metadata>
    <name>ARQUES LA SEYNE SUR MER 1497 KM</name>
    <desc><![CDATA[Rando de Arques dans le Pas de Calais jusque La Seyne sur Mer dans le Var, 1497 km]]></desc>
  </metadata>
  <trk>
    <name><![CDATA[16 * La Chaussée sur Marne Vitry le François 21.5 km]]></name>
    <extensions>
      <line xmlns="http://www.topografix.com/GPX/gpx_style/0/2">
        <color>FF0000</color>
        <width>4</width>
      </line>
    </extensions>
    <trkseg>
      <trkpt lat="48.83207" lon="4.5185">
        <ele>91</ele>
        <time>2021-11-04T16:08:59+01:00</time>
      </trkpt>
      <trkpt lat="48.83059" lon="4.5196">
        <ele>92</ele>
        <time>2021-11-04T16:09:04+01:00</time>
      </trkpt>
      <trkpt lat="48.83014" lon="4.52039">
        <ele>97</ele>
        <time>2021-11-04T16:09:09+01:00</time>
      </trkpt>
      <trkpt lat="48.82984" lon="4.52306">
        <ele>95</ele>
        <time>2021-11-04T16:09:14+01:00</time>
      </trkpt>
      <trkpt lat="48.82988" lon="4.52519">
        <ele>92</ele>
        <time>2021-11-04T16:09:19+01:00</time>
      </trkpt>
      <trkpt lat="48.82945" lon="4.52646">
        <ele>93</ele>
        <time>2021-11-04T16:09:24+01:00</time>
      </trkpt>
      <trkpt lat="48.82886" lon="4.52726">
        <ele>94</ele>
        <time>2021-11-04T16:09:29+01:00</time>
      </trkpt>
      <trkpt lat="48.82811" lon="4.5295">
        <ele>94</ele>
        <time>2021-11-04T16:09:34+01:00</time>
      </trkpt>
      <trkpt lat="48.8279" lon="4.53233">
        <ele>93</ele>
        <time>2021-11-04T16:09:39+01:00</time>
      </trkpt>
      <trkpt lat="48.82762" lon="4.53588">
        <ele>98</ele>
        <time>2021-11-04T16:09:44+01:00</time>
      </trkpt>
      <trkpt lat="48.82723" lon="4.53667">
        <ele>101</ele>
        <time>2021-11-04T16:09:49+01:00</time>
      </trkpt>
      <trkpt lat="48.82693" lon="4.53715">
        <ele>101</ele>
        <time>2021-11-04T16:09:54+01:00</time>
      </trkpt>
      <trkpt lat="48.82693" lon="4.53823">
        <ele>98</ele>
        <time>2021-11-04T16:09:59+01:00</time>
      </trkpt>
      <trkpt lat="48.82615" lon="4.53866">
        <ele>102</ele>
        <time>2021-11-04T16:10:04+01:00</time>
      </trkpt>
      <trkpt lat="48.8251" lon="4.54237">
        <ele>97</ele>
        <time>2021-11-04T16:10:09+01:00</time>
      </trkpt>
      <trkpt lat="48.82449" lon="4.54455">
        <ele>98</ele>
        <time>2021-11-04T16:10:14+01:00</time>
      </trkpt>
      <trkpt lat="48.82406" lon="4.54611">
        <ele>100</ele>
        <time>2021-11-04T16:10:19+01:00</time>
      </trkpt>
      <trkpt lat="48.82305" lon="4.54844">
        <ele>98</ele>
        <time>2021-11-04T16:10:24+01:00</time>
      </trkpt>
      <trkpt lat="48.82277" lon="4.5502">
        <ele>97</ele>
        <time>2021-11-04T16:10:29+01:00</time>
      </trkpt>
      <trkpt lat="48.82012" lon="4.55638">
        <ele>96</ele>
        <time>2021-11-04T16:10:34+01:00</time>
      </trkpt>
      <trkpt lat="48.81933" lon="4.55867">
        <ele>99</ele>
        <time>2021-11-04T16:10:39+01:00</time>
      </trkpt>
      <trkpt lat="48.81917" lon="4.56026">
        <ele>98</ele>
        <time>2021-11-04T16:10:44+01:00</time>
      </trkpt>
      <trkpt lat="48.81889" lon="4.56239">
        <ele>101</ele>
        <time>2021-11-04T16:10:49+01:00</time>
      </trkpt>
      <trkpt lat="48.81829" lon="4.56406">
        <ele>103</ele>
        <time>2021-11-04T16:10:54+01:00</time>
      </trkpt>
      <trkpt lat="48.81784" lon="4.56744">
        <ele>101</ele>
        <time>2021-11-04T16:10:59+01:00</time>
      </trkpt>
      <trkpt lat="48.81525" lon="4.57634">
        <ele>103</ele>
        <time>2021-11-04T16:11:04+01:00</time>
      </trkpt>
      <trkpt lat="48.81732" lon="4.57861">
        <ele>99</ele>
        <time>2021-11-04T16:11:09+01:00</time>
      </trkpt>
      <trkpt lat="48.81508" lon="4.58516">
        <ele>101</ele>
        <time>2021-11-04T16:11:14+01:00</time>
      </trkpt>
      <trkpt lat="48.8139" lon="4.58896">
        <ele>102</ele>
        <time>2021-11-04T16:11:19+01:00</time>
      </trkpt>
      <trkpt lat="48.81334" lon="4.58987">
        <ele>103</ele>
        <time>2021-11-04T16:11:24+01:00</time>
      </trkpt>
      <trkpt lat="48.81269" lon="4.59035">
        <ele>103</ele>
        <time>2021-11-04T16:11:29+01:00</time>
      </trkpt>
      <trkpt lat="48.81218" lon="4.59179">
        <ele>103</ele>
        <time>2021-11-04T16:11:34+01:00</time>
      </trkpt>
      <trkpt lat="48.81134" lon="4.59313">
        <ele>104</ele>
        <time>2021-11-04T16:11:39+01:00</time>
      </trkpt>
      <trkpt lat="48.81073" lon="4.59545">
        <ele>103</ele>
        <time>2021-11-04T16:11:44+01:00</time>
      </trkpt>
      <trkpt lat="48.8105" lon="4.59625">
        <ele>105</ele>
        <time>2021-11-04T16:11:49+01:00</time>
      </trkpt>
      <trkpt lat="48.81052" lon="4.59783">
        <ele>105</ele>
        <time>2021-11-04T16:11:54+01:00</time>
      </trkpt>
      <trkpt lat="48.81019" lon="4.59806">
        <ele>106</ele>
        <time>2021-11-04T16:11:59+01:00</time>
      </trkpt>
      <trkpt lat="48.80951" lon="4.60155">
        <ele>109</ele>
        <time>2021-11-04T16:12:04+01:00</time>
      </trkpt>
      <trkpt lat="48.80899" lon="4.60299">
        <ele>110</ele>
        <time>2021-11-04T16:12:09+01:00</time>
      </trkpt>
      <trkpt lat="48.80873" lon="4.60277">
        <ele>111</ele>
        <time>2021-11-04T16:12:14+01:00</time>
      </trkpt>
      <trkpt lat="48.80819" lon="4.60348">
        <ele>110</ele>
        <time>2021-11-04T16:12:19+01:00</time>
      </trkpt>
      <trkpt lat="48.80731" lon="4.60299">
        <ele>112</ele>
        <time>2021-11-04T16:12:24+01:00</time>
      </trkpt>
      <trkpt lat="48.80695" lon="4.60682">
        <ele>116</ele>
        <time>2021-11-04T16:12:29+01:00</time>
      </trkpt>
      <trkpt lat="48.80654" lon="4.60736">
        <ele>117</ele>
        <time>2021-11-04T16:12:34+01:00</time>
      </trkpt>
      <trkpt lat="48.80578" lon="4.60756">
        <ele>120</ele>
        <time>2021-11-04T16:12:39+01:00</time>
      </trkpt>
      <trkpt lat="48.80419" lon="4.60685">
        <ele>117</ele>
        <time>2021-11-04T16:12:44+01:00</time>
      </trkpt>
      <trkpt lat="48.80292" lon="4.60742">
        <ele>113</ele>
        <time>2021-11-04T16:12:49+01:00</time>
      </trkpt>
      <trkpt lat="48.80195" lon="4.60827">
        <ele>114</ele>
        <time>2021-11-04T16:12:54+01:00</time>
      </trkpt>
      <trkpt lat="48.80141" lon="4.60952">
        <ele>115</ele>
        <time>2021-11-04T16:12:59+01:00</time>
      </trkpt>
      <trkpt lat="48.79724" lon="4.61317">
        <ele>114</ele>
        <time>2021-11-04T16:13:04+01:00</time>
      </trkpt>
      <trkpt lat="48.79743" lon="4.61368">
        <ele>113</ele>
        <time>2021-11-04T16:13:09+01:00</time>
      </trkpt>
      <trkpt lat="48.795" lon="4.6174">
        <ele>123</ele>
        <time>2021-11-04T16:13:14+01:00</time>
      </trkpt>
      <trkpt lat="48.79448" lon="4.61921">
        <ele>122</ele>
        <time>2021-11-04T16:13:19+01:00</time>
      </trkpt>
      <trkpt lat="48.79399" lon="4.61884">
        <ele>124</ele>
        <time>2021-11-04T16:13:24+01:00</time>
      </trkpt>
      <trkpt lat="48.79211" lon="4.6208">
        <ele>118</ele>
        <time>2021-11-04T16:13:29+01:00</time>
      </trkpt>
      <trkpt lat="48.79007" lon="4.61768">
        <ele>120</ele>
        <time>2021-11-04T16:13:34+01:00</time>
      </trkpt>
      <trkpt lat="48.78865" lon="4.6168">
        <ele>125</ele>
        <time>2021-11-04T16:13:39+01:00</time>
      </trkpt>
      <trkpt lat="48.78617" lon="4.61723">
        <ele>126</ele>
        <time>2021-11-04T16:13:44+01:00</time>
      </trkpt>
      <trkpt lat="48.78346" lon="4.61751">
        <ele>122</ele>
        <time>2021-11-04T16:13:49+01:00</time>
      </trkpt>
      <trkpt lat="48.78245" lon="4.6174">
        <ele>124</ele>
        <time>2021-11-04T16:13:54+01:00</time>
      </trkpt>
      <trkpt lat="48.78009" lon="4.61836">
        <ele>131</ele>
        <time>2021-11-04T16:13:59+01:00</time>
      </trkpt>
      <trkpt lat="48.77636" lon="4.62154">
        <ele>125</ele>
        <time>2021-11-04T16:14:04+01:00</time>
      </trkpt>
      <trkpt lat="48.77389" lon="4.62355">
        <ele>125</ele>
        <time>2021-11-04T16:14:09+01:00</time>
      </trkpt>
      <trkpt lat="48.77253" lon="4.62415">
        <ele>128</ele>
        <time>2021-11-04T16:14:14+01:00</time>
      </trkpt>
      <trkpt lat="48.7695" lon="4.62497">
        <ele>137</ele>
        <time>2021-11-04T16:14:19+01:00</time>
      </trkpt>
      <trkpt lat="48.76583" lon="4.62579">
        <ele>142</ele>
        <time>2021-11-04T16:14:24+01:00</time>
      </trkpt>
      <trkpt lat="48.76234" lon="4.62639">
        <ele>144</ele>
        <time>2021-11-04T16:14:29+01:00</time>
      </trkpt>
      <trkpt lat="48.76036" lon="4.62676">
        <ele>153</ele>
        <time>2021-11-04T16:14:34+01:00</time>
      </trkpt>
      <trkpt lat="48.75983" lon="4.62718">
        <ele>156</ele>
        <time>2021-11-04T16:14:39+01:00</time>
      </trkpt>
      <trkpt lat="48.75939" lon="4.62783">
        <ele>158</ele>
        <time>2021-11-04T16:14:44+01:00</time>
      </trkpt>
      <trkpt lat="48.75761" lon="4.62914">
        <ele>158</ele>
        <time>2021-11-04T16:14:49+01:00</time>
      </trkpt>
      <trkpt lat="48.75606" lon="4.62911">
        <ele>151</ele>
        <time>2021-11-04T16:14:54+01:00</time>
      </trkpt>
      <trkpt lat="48.7544" lon="4.62792">
        <ele>143</ele>
        <time>2021-11-04T16:14:59+01:00</time>
      </trkpt>
      <trkpt lat="48.75286" lon="4.62738">
        <ele>132</ele>
        <time>2021-11-04T16:15:04+01:00</time>
      </trkpt>
      <trkpt lat="48.75219" lon="4.62766">
        <ele>125</ele>
        <time>2021-11-04T16:15:09+01:00</time>
      </trkpt>
      <trkpt lat="48.74927" lon="4.62599">
        <ele>110</ele>
        <time>2021-11-04T16:15:14+01:00</time>
      </trkpt>
      <trkpt lat="48.74817" lon="4.62568">
        <ele>102</ele>
        <time>2021-11-04T16:15:19+01:00</time>
      </trkpt>
      <trkpt lat="48.74774" lon="4.62511">
        <ele>100</ele>
        <time>2021-11-04T16:15:24+01:00</time>
      </trkpt>
      <trkpt lat="48.74791" lon="4.62392">
        <ele>100</ele>
        <time>2021-11-04T16:15:29+01:00</time>
      </trkpt>
      <trkpt lat="48.74742" lon="4.62367">
        <ele>97</ele>
        <time>2021-11-04T16:15:34+01:00</time>
      </trkpt>
      <trkpt lat="48.74744" lon="4.62279">
        <ele>96</ele>
        <time>2021-11-04T16:15:39+01:00</time>
      </trkpt>
      <trkpt lat="48.74778" lon="4.62117">
        <ele>98</ele>
        <time>2021-11-04T16:15:44+01:00</time>
      </trkpt>
      <trkpt lat="48.74765" lon="4.62052">
        <ele>98</ele>
        <time>2021-11-04T16:15:49+01:00</time>
      </trkpt>
      <trkpt lat="48.74694" lon="4.61933">
        <ele>96</ele>
        <time>2021-11-04T16:15:54+01:00</time>
      </trkpt>
      <trkpt lat="48.74752" lon="4.61845">
        <ele>97</ele>
        <time>2021-11-04T16:15:59+01:00</time>
      </trkpt>
      <trkpt lat="48.74753" lon="4.61553">
        <ele>102</ele>
        <time>2021-11-04T16:16:04+01:00</time>
      </trkpt>
      <trkpt lat="48.74634" lon="4.61405">
        <ele>108</ele>
        <time>2021-11-04T16:16:09+01:00</time>
      </trkpt>
      <trkpt lat="48.74538" lon="4.61397">
        <ele>103</ele>
        <time>2021-11-04T16:16:14+01:00</time>
      </trkpt>
      <trkpt lat="48.74456" lon="4.61263">
        <ele>106</ele>
        <time>2021-11-04T16:16:19+01:00</time>
      </trkpt>
      <trkpt lat="48.74462" lon="4.61142">
        <ele>111</ele>
        <time>2021-11-04T16:16:24+01:00</time>
      </trkpt>
      <trkpt lat="48.74477" lon="4.61079">
        <ele>115</ele>
        <time>2021-11-04T16:16:29+01:00</time>
      </trkpt>
      <trkpt lat="48.7449" lon="4.60943">
        <ele>115</ele>
        <time>2021-11-04T16:16:34+01:00</time>
      </trkpt>
      <trkpt lat="48.7449" lon="4.6075">
        <ele>111</ele>
        <time>2021-11-04T16:16:39+01:00</time>
      </trkpt>
      <trkpt lat="48.74533" lon="4.606">
        <ele>113</ele>
        <time>2021-11-04T16:16:44+01:00</time>
      </trkpt>
      <trkpt lat="48.7454" lon="4.6022">
        <ele>110</ele>
        <time>2021-11-04T16:16:49+01:00</time>
      </trkpt>
      <trkpt lat="48.74527" lon="4.60104">
        <ele>104</ele>
        <time>2021-11-04T16:16:54+01:00</time>
      </trkpt>
      <trkpt lat="48.74456" lon="4.59437">
        <ele>100</ele>
        <time>2021-11-04T16:16:59+01:00</time>
      </trkpt>
      <trkpt lat="48.74383" lon="4.59392">
        <ele>96</ele>
        <time>2021-11-04T16:17:04+01:00</time>
      </trkpt>
      <trkpt lat="48.74421" lon="4.59344">
        <ele>98</ele>
        <time>2021-11-04T16:17:09+01:00</time>
      </trkpt>
      <trkpt lat="48.74475" lon="4.59327">
        <ele>104</ele>
        <time>2021-11-04T16:17:14+01:00</time>
      </trkpt>
      <trkpt lat="48.74501" lon="4.59151">
        <ele>104</ele>
        <time>2021-11-04T16:17:19+01:00</time>
      </trkpt>
      <trkpt lat="48.7455" lon="4.58992">
        <ele>105</ele>
        <time>2021-11-04T16:17:24+01:00</time>
      </trkpt>
      <trkpt lat="48.7458" lon="4.58655">
        <ele>104</ele>
        <time>2021-11-04T16:17:29+01:00</time>
      </trkpt>
      <trkpt lat="48.74499" lon="4.58624">
        <ele>97</ele>
        <time>2021-11-04T16:17:34+01:00</time>
      </trkpt>
      <trkpt lat="48.74415" lon="4.58539">
        <ele>95</ele>
        <time>2021-11-04T16:17:39+01:00</time>
      </trkpt>
      <trkpt lat="48.74323" lon="4.58519">
        <ele>96</ele>
        <time>2021-11-04T16:17:44+01:00</time>
      </trkpt>
      <trkpt lat="48.74303" lon="4.58465">
        <ele>95</ele>
        <time>2021-11-04T16:17:49+01:00</time>
      </trkpt>
      <trkpt lat="48.73616" lon="4.58451">
        <ele>97</ele>
        <time>2021-11-04T16:17:54+01:00</time>
      </trkpt>
      <trkpt lat="48.73637" lon="4.58159">
        <ele>97</ele>
        <time>2021-11-04T16:17:59+01:00</time>
      </trkpt>
      <trkpt lat="48.73501" lon="4.58074">
        <ele>96</ele>
        <time>2021-11-04T16:18:04+01:00</time>
      </trkpt>
      <trkpt lat="48.73362" lon="4.58091">
        <ele>96</ele>
        <time>2021-11-04T16:18:09+01:00</time>
      </trkpt>
      <trkpt lat="48.73263" lon="4.5815">
        <ele>97</ele>
        <time>2021-11-04T16:18:14+01:00</time>
      </trkpt>
      <trkpt lat="48.73216" lon="4.58136">
        <ele>97</ele>
        <time>2021-11-04T16:18:19+01:00</time>
      </trkpt>
      <trkpt lat="48.73055" lon="4.57971">
        <ele>97</ele>
        <time>2021-11-04T16:18:24+01:00</time>
      </trkpt>
      <trkpt lat="48.73031" lon="4.57889">
        <ele>96</ele>
        <time>2021-11-04T16:18:29+01:00</time>
      </trkpt>
      <trkpt lat="48.72829" lon="4.57761">
        <ele>98</ele>
        <time>2021-11-04T16:18:34+01:00</time>
      </trkpt>
      <trkpt lat="48.72714" lon="4.5812">
        <ele>98</ele>
        <time>2021-11-04T16:18:39+01:00</time>
      </trkpt>
      <trkpt lat="48.72653" lon="4.58341">
        <ele>102</ele>
        <time>2021-11-04T16:18:44+01:00</time>
      </trkpt>
      <trkpt lat="48.72616" lon="4.58463">
        <ele>103</ele>
        <time>2021-11-04T16:18:49+01:00</time>
      </trkpt>
      <trkpt lat="48.72571" lon="4.58431">
        <ele>103</ele>
        <time>2021-11-04T16:18:54+01:00</time>
      </trkpt>
      <trkpt lat="48.72557" lon="4.58495">
        <ele>103</ele>
        <time>2021-11-04T16:18:59+01:00</time>
      </trkpt>
      <trkpt lat="48.72499" lon="4.58462">
        <ele>103</ele>
        <time>2021-11-04T16:19:04+01:00</time>
      </trkpt>
    </trkseg>
  </trk>
</gpx>